Beltsville, MD (20704)

10:39 PM EDT on September 02, 2014 (GMT -0400)
High Point Homes | Change Station
CLOSE
Current Station
Personal Weather Station
Location: Beltsville, MD
Elevation: 230 ft
Nearby Weather Stations

Elev 230 ft 39.05 °N, 76.94 °W | Updated 0 second ago

Clear
Clear
73.9 °F
Feels Like 70 °F
N
0.0
Wind Variable Wind from West
Gusts 0.0 mph

Today
High -- | Low -- °F
--% Chance of Precip.
Yesterday
High -- | Low -- °F
Precip. -- in
6:37 AM 7:36 PM
First Quarter, 57% visible
Pressure 29.89 in
Visibility 4.0 miles
Clouds Clear
Heat Index 70 °F
Dew Point 73 °F
Humidity 97%
Rainfall 0.38 in
Snow Depth Not available.
UV 0 out of 12
Pollen 9.80 out of 12
Air Quality Not available.
Flu Activity Not available.
METAR KCGS 030230Z AUTO 00000KT 4SM CLR 23/23 A2989 RMK AO1

More Conditions Fewer Conditions

Pressure 29.89 in
Visibility 4.0 miles
Clouds Clear
Heat Index 70 °F
Dew Point 73 °F
Humidity 97%
Rainfall 0.38 in
Snow Depth Not available.
UV 0 out of 12
Pollen 9.80 out of 12
Air Quality Not available.
Flu Activity Not available.
METAR KCGS 030230Z AUTO 00000KT 4SM CLR 23/23 A2989 RMK AO1

More Conditions Fewer Conditions

10-Day Weather Forecast

Almanac

Astronomy

Sep. 02, 2014 Rise Set
Actual Time 6:37 AM EDT 7:36 PM EDT
Civil Twilight 6:09 AM EDT 8:03 PM EDT
Nautical Twilight 5:37 AM EDT 8:36 PM EDT
Astronomical Twilight 5:03 AM EDT 9:09 PM EDT
Moon 2:16 PM EDT (9/2) No Moon Set
Length of Visible Light 13h 53m
Length of Day
12h 59m
Tomorrow will be 2m 26s shorter.
First Quarter, 57% of the Moon is Illuminated
Today
First Quarter
Sep 8
Full
Sep 15
Last Quarter
Sep 24
New
Oct 1
First Quarter

Today's Extremes

State Highs State Lows

Community

WunderPhotos

Upload Photos

1,749,845 photos uploaded!

Nearby

Snow Depth

Station Depth Elevation
No new snow has been reported.

Earthquake Activity

City Distance Mag. Time & Date
No recent earthquake activity has been reported nearby.
Minimum magnitude displayed is 2.5.

Coastal Water Temperatures

Place Temperature
Washington, DC 82.0 °F
Baltimore, MD 82.9 °F
Solomons Island, MD 82.0 °F

Nearby Weather Stations